sensor_id;sensor_type;location;lat;lon;timestamp;temperature;humidity
584;HTU21D;27024;54.068;12.116;2023-08-24T00:01:15;17.46;118.99
584;HTU21D;27024;54.068;12.116;2023-08-24T00:03:46;17.46;118.99
584;HTU21D;27024;54.068;12.116;2023-08-24T00:06:14;17.48;118.99
584;HTU21D;27024;54.068;12.116;2023-08-24T00:08:41;17.48;118.99
584;HTU21D;27024;54.068;12.116;2023-08-24T00:11:08;17.51;118.99
584;HTU21D;27024;54.068;12.116;2023-08-24T00:13:38;17.52;118.99
584;HTU21D;27024;54.068;12.116;2023-08-24T00:16:05;17.50;118.99
584;HTU21D;27024;54.068;12.116;2023-08-24T00:18:32;17.52;118.99
584;HTU21D;27024;54.068;12.116;2023-08-24T00:20:59;17.45;118.99
584;HTU21D;27024;54.068;12.116;2023-08-24T00:23:26;17.31;118.99
584;HTU21D;27024;54.068;12.116;2023-08-24T00:25:53;17.35;118.99
584;HTU21D;27024;54.068;12.116;2023-08-24T00:28:20;17.38;118.99
584;HTU21D;27024;54.068;12.116;2023-08-24T00:30:46;17.32;118.99
584;HTU21D;27024;54.068;12.116;2023-08-24T00:33:13;17.35;118.99
584;HTU21D;27024;54.068;12.116;2023-08-24T00:35:41;17.38;118.99
584;HTU21D;27024;54.068;12.116;2023-08-24T00:38:08;17.40;118.99
584;HTU21D;27024;54.068;12.116;2023-08-24T00:40:34;17.36;118.99
584;HTU21D;27024;54.068;12.116;2023-08-24T00:43:01;17.35;118.99
584;HTU21D;27024;54.068;12.116;2023-08-24T00:45:30;17.32;118.99
584;HTU21D;27024;54.068;12.116;2023-08-24T00:47:59;17.31;118.99
584;HTU21D;27024;54.068;12.116;2023-08-24T00:50:26;17.32;118.99
584;HTU21D;27024;54.068;12.116;2023-08-24T00:52:53;17.25;118.99
584;HTU21D;27024;54.068;12.116;2023-08-24T00:55:21;17.26;118.99
584;HTU21D;27024;54.068;12.116;2023-08-24T00:57:48;17.21;118.99
584;HTU21D;27024;54.068;12.116;2023-08-24T01:00:16;17.15;118.99
584;HTU21D;27024;54.068;12.116;2023-08-24T01:02:43;17.28;118.99
584;HTU21D;27024;54.068;12.116;2023-08-24T01:05:10;17.21;118.99
584;HTU21D;27024;54.068;12.116;2023-08-24T01:07:38;17.23;118.99
584;HTU21D;27024;54.068;12.116;2023-08-24T01:10:06;17.28;118.99
584;HTU21D;27024;54.068;12.116;2023-08-24T01:12:51;17.19;118.99
584;HTU21D;27024;54.068;12.116;2023-08-24T01:18:06;17.16;118.99
584;HTU21D;27024;54.068;12.116;2023-08-24T01:20:36;17.11;118.99
584;HTU21D;27024;54.068;12.116;2023-08-24T01:23:05;17.06;118.99
584;HTU21D;27024;54.068;12.116;2023-08-24T01:25:40;17.02;118.99
584;HTU21D;27024;54.068;12.116;2023-08-24T01:28:09;16.93;118.99
584;HTU21D;27024;54.068;12.116;2023-08-24T01:30:37;16.90;118.99
584;HTU21D;27024;54.068;12.116;2023-08-24T01:33:05;16.84;118.99
584;HTU21D;27024;54.068;12.116;2023-08-24T01:35:32;16.80;118.99
584;HTU21D;27024;54.068;12.116;2023-08-24T01:37:59;16.72;118.99
584;HTU21D;27024;54.068;12.116;2023-08-24T01:40:47;16.67;118.99
584;HTU21D;27024;54.068;12.116;2023-08-24T01:43:15;16.57;118.99
584;HTU21D;27024;54.068;12.116;2023-08-24T01:45:58;16.49;118.99
584;HTU21D;27024;54.068;12.116;2023-08-24T01:48:26;16.46;118.99
584;HTU21D;27024;54.068;12.116;2023-08-24T01:50:53;16.37;118.99
584;HTU21D;27024;54.068;12.116;2023-08-24T01:53:20;16.42;118.99
584;HTU21D;27024;54.068;12.116;2023-08-24T01:55:46;16.34;118.99
584;HTU21D;27024;54.068;12.116;2023-08-24T01:58:14;16.27;118.99
584;HTU21D;27024;54.068;12.116;2023-08-24T02:00:41;16.28;118.99
584;HTU21D;27024;54.068;12.116;2023-08-24T02:03:08;16.21;118.99
584;HTU21D;27024;54.068;12.116;2023-08-24T02:05:35;16.16;118.99
584;HTU21D;27024;54.068;12.116;2023-08-24T02:08:02;16.12;118.99
584;HTU21D;27024;54.068;12.116;2023-08-24T02:10:29;16.04;118.99
584;HTU21D;27024;54.068;12.116;2023-08-24T02:12:56;16.03;118.99
584;HTU21D;27024;54.068;12.116;2023-08-24T02:15:23;16.00;118.99
584;HTU21D;27024;54.068;12.116;2023-08-24T02:17:50;15.96;118.99
584;HTU21D;27024;54.068;12.116;2023-08-24T02:20:17;15.97;118.99
584;HTU21D;27024;54.068;12.116;2023-08-24T02:22:44;15.96;118.99
584;HTU21D;27024;54.068;12.116;2023-08-24T02:25:11;15.88;118.99
584;HTU21D;27024;54.068;12.116;2023-08-24T02:27:38;15.78;118.99
584;HTU21D;27024;54.068;12.116;2023-08-24T02:30:05;15.77;118.99
584;HTU21D;27024;54.068;12.116;2023-08-24T02:32:32;15.80;118.99
584;HTU21D;27024;54.068;12.116;2023-08-24T02:34:59;15.73;118.99
584;HTU21D;27024;54.068;12.116;2023-08-24T02:37:26;15.66;118.99
584;HTU21D;27024;54.068;12.116;2023-08-24T02:39:53;15.59;118.99
584;HTU21D;27024;54.068;12.116;2023-08-24T02:42:20;15.59;118.99
584;HTU21D;27024;54.068;12.116;2023-08-24T02:44:47;15.62;118.99
584;HTU21D;27024;54.068;12.116;2023-08-24T02:47:15;15.53;118.99
584;HTU21D;27024;54.068;12.116;2023-08-24T02:49:41;15.44;118.99
584;HTU21D;27024;54.068;12.116;2023-08-24T02:52:09;15.45;118.99
584;HTU21D;27024;54.068;12.116;2023-08-24T02:54:35;15.43;118.99
584;HTU21D;27024;54.068;12.116;2023-08-24T02:57:02;15.49;118.99
584;HTU21D;27024;54.068;12.116;2023-08-24T02:59:29;15.44;118.99
584;HTU21D;27024;54.068;12.116;2023-08-24T03:01:56;15.42;118.99
584;HTU21D;27024;54.068;12.116;2023-08-24T03:04:23;15.41;118.99
584;HTU21D;27024;54.068;12.116;2023-08-24T03:06:49;15.40;118.99
584;HTU21D;27024;54.068;12.116;2023-08-24T03:09:16;15.40;118.99
584;HTU21D;27024;54.068;12.116;2023-08-24T03:11:43;15.31;118.99
584;HTU21D;27024;54.068;12.116;2023-08-24T03:14:10;15.33;118.99
584;HTU21D;27024;54.068;12.116;2023-08-24T03:16:37;15.30;118.99
584;HTU21D;27024;54.068;12.116;2023-08-24T03:19:05;15.29;118.99
584;HTU21D;27024;54.068;12.116;2023-08-24T03:21:32;15.24;118.99
584;HTU21D;27024;54.068;12.116;2023-08-24T03:23:59;15.26;118.99
584;HTU21D;27024;54.068;12.116;2023-08-24T03:26:26;15.18;118.99
584;HTU21D;27024;54.068;12.116;2023-08-24T03:28:53;15.21;118.99
584;HTU21D;27024;54.068;12.116;2023-08-24T03:31:19;15.34;118.99
584;HTU21D;27024;54.068;12.116;2023-08-24T03:33:46;15.25;118.99
584;HTU21D;27024;54.068;12.116;2023-08-24T03:36:13;15.26;118.99
584;HTU21D;27024;54.068;12.116;2023-08-24T03:38:40;15.23;118.99
584;HTU21D;27024;54.068;12.116;2023-08-24T03:41:07;15.12;118.99
584;HTU21D;27024;54.068;12.116;2023-08-24T03:43:34;15.17;118.99
584;HTU21D;27024;54.068;12.116;2023-08-24T03:46:02;15.21;118.99
584;HTU21D;27024;54.068;12.116;2023-08-24T03:48:31;15.14;118.99
584;HTU21D;27024;54.068;12.116;2023-08-24T03:50:58;15.21;118.99
584;HTU21D;27024;54.068;12.116;2023-08-24T03:53:25;15.18;118.99
584;HTU21D;27024;54.068;12.116;2023-08-24T03:55:54;15.04;118.99
584;HTU21D;27024;54.068;12.116;2023-08-24T03:58:21;15.07;118.99
584;HTU21D;27024;54.068;12.116;2023-08-24T04:00:48;15.09;118.99
584;HTU21D;27024;54.068;12.116;2023-08-24T04:03:15;15.08;118.99
584;HTU21D;27024;54.068;12.116;2023-08-24T04:05:42;15.09;118.99
584;HTU21D;27024;54.068;12.116;2023-08-24T04:08:08;15.07;118.99
584;HTU21D;27024;54.068;12.116;2023-08-24T04:10:35;15.07;118.99
584;HTU21D;27024;54.068;12.116;2023-08-24T04:13:02;15.02;118.99
584;HTU21D;27024;54.068;12.116;2023-08-24T04:15:29;15.03;118.99
584;HTU21D;27024;54.068;12.116;2023-08-24T04:17:56;15.03;118.99
584;HTU21D;27024;54.068;12.116;2023-08-24T04:20:23;14.99;118.99
584;HTU21D;27024;54.068;12.116;2023-08-24T04:22:50;14.95;118.99
584;HTU21D;27024;54.068;12.116;2023-08-24T04:25:17;14.92;118.99
584;HTU21D;27024;54.068;12.116;2023-08-24T04:27:44;14.89;118.99
584;HTU21D;27024;54.068;12.116;2023-08-24T04:30:11;14.88;118.99
584;HTU21D;27024;54.068;12.116;2023-08-24T04:32:39;14.84;118.99
584;HTU21D;27024;54.068;12.116;2023-08-24T04:35:06;14.83;118.99
584;HTU21D;27024;54.068;12.116;2023-08-24T04:37:34;14.88;118.99
584;HTU21D;27024;54.068;12.116;2023-08-24T04:40:01;14.88;118.99
584;HTU21D;27024;54.068;12.116;2023-08-24T04:42:28;14.86;118.99
584;HTU21D;27024;54.068;12.116;2023-08-24T04:44:54;14.91;118.99
584;HTU21D;27024;54.068;12.116;2023-08-24T04:47:23;14.94;118.99
584;HTU21D;27024;54.068;12.116;2023-08-24T04:49:49;15.03;118.99
584;HTU21D;27024;54.068;12.116;2023-08-24T04:52:16;15.02;118.99
584;HTU21D;27024;54.068;12.116;2023-08-24T04:54:43;14.97;118.99
584;HTU21D;27024;54.068;12.116;2023-08-24T04:57:10;14.98;118.99
584;HTU21D;27024;54.068;12.116;2023-08-24T04:59:37;15.12;118.99
584;HTU21D;27024;54.068;12.116;2023-08-24T05:02:03;15.06;118.99
584;HTU21D;27024;54.068;12.116;2023-08-24T05:04:30;15.18;118.99
584;HTU21D;27024;54.068;12.116;2023-08-24T05:06:58;15.30;118.99
584;HTU21D;27024;54.068;12.116;2023-08-24T05:09:25;15.22;118.99
584;HTU21D;27024;54.068;12.116;2023-08-24T05:11:51;15.28;118.99
584;HTU21D;27024;54.068;12.116;2023-08-24T05:14:18;15.36;118.99
584;HTU21D;27024;54.068;12.116;2023-08-24T05:16:45;15.44;118.99
584;HTU21D;27024;54.068;12.116;2023-08-24T05:19:12;15.39;118.99
584;HTU21D;27024;54.068;12.116;2023-08-24T05:21:39;15.43;118.99
584;HTU21D;27024;54.068;12.116;2023-08-24T05:24:06;15.62;118.99
584;HTU21D;27024;54.068;12.116;2023-08-24T05:26:32;15.68;118.99
584;HTU21D;27024;54.068;12.116;2023-08-24T05:29:01;15.68;118.99
584;HTU21D;27024;54.068;12.116;2023-08-24T05:31:27;15.77;118.99
584;HTU21D;27024;54.068;12.116;2023-08-24T05:33:54;15.84;118.99
584;HTU21D;27024;54.068;12.116;2023-08-24T05:36:21;15.86;118.99
584;HTU21D;27024;54.068;12.116;2023-08-24T05:38:48;15.97;118.99
584;HTU21D;27024;54.068;12.116;2023-08-24T05:41:17;16.03;118.99
584;HTU21D;27024;54.068;12.116;2023-08-24T05:43:44;16.14;118.99
584;HTU21D;27024;54.068;12.116;2023-08-24T05:46:11;16.18;118.99
584;HTU21D;27024;54.068;12.116;2023-08-24T05:48:38;16.24;118.99
584;HTU21D;27024;54.068;12.116;2023-08-24T05:51:05;16.28;118.99
584;HTU21D;27024;54.068;12.116;2023-08-24T05:53:33;16.29;118.99
584;HTU21D;27024;54.068;12.116;2023-08-24T05:56:00;16.19;118.99
584;HTU21D;27024;54.068;12.116;2023-08-24T05:58:27;16.41;118.99
584;HTU21D;27024;54.068;12.116;2023-08-24T06:00:58;16.43;118.99
584;HTU21D;27024;54.068;12.116;2023-08-24T06:03:25;16.48;118.99
584;HTU21D;27024;54.068;12.116;2023-08-24T06:05:52;16.57;118.99
584;HTU21D;27024;54.068;12.116;2023-08-24T06:08:19;16.71;118.99
584;HTU21D;27024;54.068;12.116;2023-08-24T06:10:46;16.90;118.99
584;HTU21D;27024;54.068;12.116;2023-08-24T06:13:13;16.92;118.99
584;HTU21D;27024;54.068;12.116;2023-08-24T06:15:40;16.88;118.99
584;HTU21D;27024;54.068;12.116;2023-08-24T06:18:08;17.13;118.99
584;HTU21D;27024;54.068;12.116;2023-08-24T06:20:35;16.96;118.99
584;HTU21D;27024;54.068;12.116;2023-08-24T06:23:02;17.26;118.99
584;HTU21D;27024;54.068;12.116;2023-08-24T06:25:29;17.67;118.99
584;HTU21D;27024;54.068;12.116;2023-08-24T06:27:57;17.93;118.99
584;HTU21D;27024;54.068;12.116;2023-08-24T06:30:26;18.08;118.99
584;HTU21D;27024;54.068;12.116;2023-08-24T06:32:53;18.82;118.99
584;HTU21D;27024;54.068;12.116;2023-08-24T06:35:20;18.93;118.99
584;HTU21D;27024;54.068;12.116;2023-08-24T06:37:47;19.09;118.99
584;HTU21D;27024;54.068;12.116;2023-08-24T06:40:14;19.07;118.99
584;HTU21D;27024;54.068;12.116;2023-08-24T06:42:44;18.80;118.99
584;HTU21D;27024;54.068;12.116;2023-08-24T06:45:11;19.13;118.99
584;HTU21D;27024;54.068;12.116;2023-08-24T06:47:39;19.13;118.99
584;HTU21D;27024;54.068;12.116;2023-08-24T06:50:06;19.36;118.99
584;HTU21D;27024;54.068;12.116;2023-08-24T06:52:33;19.44;118.99
584;HTU21D;27024;54.068;12.116;2023-08-24T06:55:00;19.70;118.99
584;HTU21D;27024;54.068;12.116;2023-08-24T06:57:27;19.68;118.99
584;HTU21D;27024;54.068;12.116;2023-08-24T06:59:54;19.74;118.99
584;HTU21D;27024;54.068;12.116;2023-08-24T07:02:21;19.81;118.99
584;HTU21D;27024;54.068;12.116;2023-08-24T07:04:48;19.56;118.99
584;HTU21D;27024;54.068;12.116;2023-08-24T07:07:15;19.38;118.99
584;HTU21D;27024;54.068;12.116;2023-08-24T07:09:41;19.42;118.99
584;HTU21D;27024;54.068;12.116;2023-08-24T07:12:09;19.15;118.99
584;HTU21D;27024;54.068;12.116;2023-08-24T07:14:36;19.29;118.99
584;HTU21D;27024;54.068;12.116;2023-08-24T07:17:03;19.26;118.99
584;HTU21D;27024;54.068;12.116;2023-08-24T07:19:31;18.99;118.99
584;HTU21D;27024;54.068;12.116;2023-08-24T07:21:58;19.06;118.99
584;HTU21D;27024;54.068;12.116;2023-08-24T07:24:24;18.96;118.99
584;HTU21D;27024;54.068;12.116;2023-08-24T07:27:09;18.94;118.99
584;HTU21D;27024;54.068;12.116;2023-08-24T07:29:37;19.12;118.99
584;HTU21D;27024;54.068;12.116;2023-08-24T07:32:04;19.09;118.99
584;HTU21D;27024;54.068;12.116;2023-08-24T07:34:31;18.98;118.99
584;HTU21D;27024;54.068;12.116;2023-08-24T07:36:57;18.99;118.99
584;HTU21D;27024;54.068;12.116;2023-08-24T07:39:24;18.91;118.99
584;HTU21D;27024;54.068;12.116;2023-08-24T07:41:52;18.84;118.99
584;HTU21D;27024;54.068;12.116;2023-08-24T07:44:19;18.91;118.99
584;HTU21D;27024;54.068;12.116;2023-08-24T07:46:47;18.95;118.99
584;HTU21D;27024;54.068;12.116;2023-08-24T07:49:14;19.17;118.99
584;HTU21D;27024;54.068;12.116;2023-08-24T07:51:41;19.21;118.99
584;HTU21D;27024;54.068;12.116;2023-08-24T07:54:09;19.31;118.99
584;HTU21D;27024;54.068;12.116;2023-08-24T07:56:36;19.21;118.99
584;HTU21D;27024;54.068;12.116;2023-08-24T07:59:03;19.25;118.99
584;HTU21D;27024;54.068;12.116;2023-08-24T08:01:30;19.28;118.99
584;HTU21D;27024;54.068;12.116;2023-08-24T08:03:57;19.39;118.99
584;HTU21D;27024;54.068;12.116;2023-08-24T08:06:24;19.27;118.99
584;HTU21D;27024;54.068;12.116;2023-08-24T08:08:53;19.31;118.99
584;HTU21D;27024;54.068;12.116;2023-08-24T08:11:20;19.54;118.99
584;HTU21D;27024;54.068;12.116;2023-08-24T08:13:48;19.53;118.99
584;HTU21D;27024;54.068;12.116;2023-08-24T08:16:15;19.42;118.99
584;HTU21D;27024;54.068;12.116;2023-08-24T08:18:42;19.50;118.99
584;HTU21D;27024;54.068;12.116;2023-08-24T08:21:10;19.59;118.99
584;HTU21D;27024;54.068;12.116;2023-08-24T08:23:38;19.51;118.99
584;HTU21D;27024;54.068;12.116;2023-08-24T08:26:07;19.55;118.99
584;HTU21D;27024;54.068;12.116;2023-08-24T08:28:36;19.69;118.99
584;HTU21D;27024;54.068;12.116;2023-08-24T08:31:03;19.65;118.99
584;HTU21D;27024;54.068;12.116;2023-08-24T08:33:30;19.79;118.99
584;HTU21D;27024;54.068;12.116;2023-08-24T08:35:57;19.96;118.99
584;HTU21D;27024;54.068;12.116;2023-08-24T08:38:24;20.07;118.99
584;HTU21D;27024;54.068;12.116;2023-08-24T08:40:56;20.21;118.99
584;HTU21D;27024;54.068;12.116;2023-08-24T08:43:23;20.40;118.99
584;HTU21D;27024;54.068;12.116;2023-08-24T08:45:51;20.55;118.99
584;HTU21D;27024;54.068;12.116;2023-08-24T08:48:20;20.37;118.99
584;HTU21D;27024;54.068;12.116;2023-08-24T08:50:49;20.60;118.99
584;HTU21D;27024;54.068;12.116;2023-08-24T08:53:16;20.74;118.99
584;HTU21D;27024;54.068;12.116;2023-08-24T08:55:44;20.74;118.99
584;HTU21D;27024;54.068;12.116;2023-08-24T08:58:12;20.84;118.99
584;HTU21D;27024;54.068;12.116;2023-08-24T09:00:38;21.02;118.99
584;HTU21D;27024;54.068;12.116;2023-08-24T09:03:05;21.20;118.99
584;HTU21D;27024;54.068;12.116;2023-08-24T09:05:33;21.44;118.99
584;HTU21D;27024;54.068;12.116;2023-08-24T09:08:02;21.43;118.99
584;HTU21D;27024;54.068;12.116;2023-08-24T09:10:29;21.96;118.99
584;HTU21D;27024;54.068;12.116;2023-08-24T09:12:57;22.17;118.99
584;HTU21D;27024;54.068;12.116;2023-08-24T09:15:27;22.36;118.99
584;HTU21D;27024;54.068;12.116;2023-08-24T09:17:56;22.73;118.99
584;HTU21D;27024;54.068;12.116;2023-08-24T09:20:27;22.93;118.99
584;HTU21D;27024;54.068;12.116;2023-08-24T09:22:55;22.87;118.99
584;HTU21D;27024;54.068;12.116;2023-08-24T09:25:24;23.30;118.99
584;HTU21D;27024;54.068;12.116;2023-08-24T09:28:02;23.58;118.99
584;HTU21D;27024;54.068;12.116;2023-08-24T09:30:35;23.71;118.99
584;HTU21D;27024;54.068;12.116;2023-08-24T09:33:04;23.91;118.99
584;HTU21D;27024;54.068;12.116;2023-08-24T09:35:34;23.99;118.99
584;HTU21D;27024;54.068;12.116;2023-08-24T09:38:22;24.10;118.99
584;HTU21D;27024;54.068;12.116;2023-08-24T09:40:54;24.21;118.99
584;HTU21D;27024;54.068;12.116;2023-08-24T09:43:22;24.50;118.99
584;HTU21D;27024;54.068;12.116;2023-08-24T09:45:54;24.69;118.99
584;HTU21D;27024;54.068;12.116;2023-08-24T09:48:22;24.99;118.99
584;HTU21D;27024;54.068;12.116;2023-08-24T09:50:51;25.06;118.99
584;HTU21D;27024;54.068;12.116;2023-08-24T09:53:20;24.87;118.99
584;HTU21D;27024;54.068;12.116;2023-08-24T09:56:00;25.05;118.99
584;HTU21D;27024;54.068;12.116;2023-08-24T09:58:28;25.44;118.99
584;HTU21D;27024;54.068;12.116;2023-08-24T10:00:55;25.50;118.99
584;HTU21D;27024;54.068;12.116;2023-08-24T10:03:26;25.72;118.99
584;HTU21D;27024;54.068;12.116;2023-08-24T10:05:55;25.97;118.99
584;HTU21D;27024;54.068;12.116;2023-08-24T10:08:44;25.73;118.99
584;HTU21D;27024;54.068;12.116;2023-08-24T10:11:16;25.97;118.99
584;HTU21D;27024;54.068;12.116;2023-08-24T10:13:51;25.89;118.99
584;HTU21D;27024;54.068;12.116;2023-08-24T10:16:20;26.22;118.99
584;HTU21D;27024;54.068;12.116;2023-08-24T10:18:49;26.36;118.99
584;HTU21D;27024;54.068;12.116;2023-08-24T10:21:18;26.46;118.99
584;HTU21D;27024;54.068;12.116;2023-08-24T10:23:46;26.55;118.99
584;HTU21D;27024;54.068;12.116;2023-08-24T10:26:13;26.28;118.99
584;HTU21D;27024;54.068;12.116;2023-08-24T10:28:41;25.87;118.99
584;HTU21D;27024;54.068;12.116;2023-08-24T10:31:08;26.61;118.99
584;HTU21D;27024;54.068;12.116;2023-08-24T10:33:36;26.63;118.99
584;HTU21D;27024;54.068;12.116;2023-08-24T10:36:06;26.73;118.99
584;HTU21D;27024;54.068;12.116;2023-08-24T10:38:40;26.58;118.99
584;HTU21D;27024;54.068;12.116;2023-08-24T10:41:10;26.66;118.99
584;HTU21D;27024;54.068;12.116;2023-08-24T10:43:48;26.63;118.99
584;HTU21D;27024;54.068;12.116;2023-08-24T10:46:16;26.70;118.99
584;HTU21D;27024;54.068;12.116;2023-08-24T10:53:48;27.25;118.99
584;HTU21D;27024;54.068;12.116;2023-08-24T10:56:18;26.48;118.99
584;HTU21D;27024;54.068;12.116;2023-08-24T10:58:46;26.64;118.99
584;HTU21D;27024;54.068;12.116;2023-08-24T11:01:16;26.79;118.99
584;HTU21D;27024;54.068;12.116;2023-08-24T11:03:54;26.82;118.99
584;HTU21D;27024;54.068;12.116;2023-08-24T11:06:23;26.62;118.99
584;HTU21D;27024;54.068;12.116;2023-08-24T11:09:08;27.08;118.99
584;HTU21D;27024;54.068;12.116;2023-08-24T11:11:41;27.12;118.99
584;HTU21D;27024;54.068;12.116;2023-08-24T11:14:21;27.45;118.99
584;HTU21D;27024;54.068;12.116;2023-08-24T11:16:55;27.46;118.99
584;HTU21D;27024;54.068;12.116;2023-08-24T11:19:23;27.19;118.99
584;HTU21D;27024;54.068;12.116;2023-08-24T11:21:51;27.54;118.99
584;HTU21D;27024;54.068;12.116;2023-08-24T11:24:19;27.76;118.99
584;HTU21D;27024;54.068;12.116;2023-08-24T11:26:47;27.26;118.99
584;HTU21D;27024;54.068;12.116;2023-08-24T11:29:15;28.03;118.99
584;HTU21D;27024;54.068;12.116;2023-08-24T11:31:42;27.17;118.99
584;HTU21D;27024;54.068;12.116;2023-08-24T11:34:10;26.04;118.99
584;HTU21D;27024;54.068;12.116;2023-08-24T11:36:47;27.61;118.99
584;HTU21D;27024;54.068;12.116;2023-08-24T11:39:16;27.01;118.99
584;HTU21D;27024;54.068;12.116;2023-08-24T11:41:44;27.79;118.99
584;HTU21D;27024;54.068;12.116;2023-08-24T11:44:11;27.90;118.99
584;HTU21D;27024;54.068;12.116;2023-08-24T11:46:56;27.42;118.99
584;HTU21D;27024;54.068;12.116;2023-08-24T11:49:24;27.96;118.99
584;HTU21D;27024;54.068;12.116;2023-08-24T11:51:51;28.09;118.99
584;HTU21D;27024;54.068;12.116;2023-08-24T11:54:21;27.98;118.99
584;HTU21D;27024;54.068;12.116;2023-08-24T11:56:48;27.60;118.99
584;HTU21D;27024;54.068;12.116;2023-08-24T11:59:16;28.26;118.99
584;HTU21D;27024;54.068;12.116;2023-08-24T12:01:44;28.69;118.99
584;HTU21D;27024;54.068;12.116;2023-08-24T12:04:12;28.60;118.99
584;HTU21D;27024;54.068;12.116;2023-08-24T12:06:39;28.45;118.99
584;HTU21D;27024;54.068;12.116;2023-08-24T12:09:07;28.97;118.99
584;HTU21D;27024;54.068;12.116;2023-08-24T12:11:37;28.58;118.99
584;HTU21D;27024;54.068;12.116;2023-08-24T12:14:06;26.95;118.99
584;HTU21D;27024;54.068;12.116;2023-08-24T12:16:36;28.10;118.99
584;HTU21D;27024;54.068;12.116;2023-08-24T12:19:07;27.87;118.99
584;HTU21D;27024;54.068;12.116;2023-08-24T12:21:34;28.18;118.99
584;HTU21D;27024;54.068;12.116;2023-08-24T12:24:03;28.18;118.99
584;HTU21D;27024;54.068;12.116;2023-08-24T12:26:34;28.58;118.99
584;HTU21D;27024;54.068;12.116;2023-08-24T12:29:04;28.83;118.99
584;HTU21D;27024;54.068;12.116;2023-08-24T12:31:35;29.03;118.99
584;HTU21D;27024;54.068;12.116;2023-08-24T12:34:07;29.04;118.99
584;HTU21D;27024;54.068;12.116;2023-08-24T12:36:38;28.77;118.99
584;HTU21D;27024;54.068;12.116;2023-08-24T12:39:06;28.88;118.99
584;HTU21D;27024;54.068;12.116;2023-08-24T12:41:37;28.99;118.99
584;HTU21D;27024;54.068;12.116;2023-08-24T12:44:04;28.84;118.99
584;HTU21D;27024;54.068;12.116;2023-08-24T12:46:38;28.72;118.99
584;HTU21D;27024;54.068;12.116;2023-08-24T12:49:05;28.54;118.99
584;HTU21D;27024;54.068;12.116;2023-08-24T12:51:32;28.77;118.99
584;HTU21D;27024;54.068;12.116;2023-08-24T12:53:59;28.91;118.99
584;HTU21D;27024;54.068;12.116;2023-08-24T12:56:25;28.77;118.99
584;HTU21D;27024;54.068;12.116;2023-08-24T12:58:52;28.74;118.99
584;HTU21D;27024;54.068;12.116;2023-08-24T13:01:20;28.10;118.99
584;HTU21D;27024;54.068;12.116;2023-08-24T13:03:47;28.27;118.99
584;HTU21D;27024;54.068;12.116;2023-08-24T13:06:14;28.40;118.99
584;HTU21D;27024;54.068;12.116;2023-08-24T13:08:52;27.82;118.99
584;HTU21D;27024;54.068;12.116;2023-08-24T13:11:21;28.05;118.99
584;HTU21D;27024;54.068;12.116;2023-08-24T13:13:48;28.10;118.99
584;HTU21D;27024;54.068;12.116;2023-08-24T13:16:15;28.37;118.99
584;HTU21D;27024;54.068;12.116;2023-08-24T13:18:42;28.23;118.99
584;HTU21D;27024;54.068;12.116;2023-08-24T13:21:09;28.23;118.99
584;HTU21D;27024;54.068;12.116;2023-08-24T13:23:36;28.43;118.99
584;HTU21D;27024;54.068;12.116;2023-08-24T13:26:03;28.52;118.99
584;HTU21D;27024;54.068;12.116;2023-08-24T13:28:30;28.63;118.99
584;HTU21D;27024;54.068;12.116;2023-08-24T13:30:57;28.17;118.99
584;HTU21D;27024;54.068;12.116;2023-08-24T13:33:24;28.19;118.99
584;HTU21D;27024;54.068;12.116;2023-08-24T13:35:51;27.75;118.99
584;HTU21D;27024;54.068;12.116;2023-08-24T13:38:17;27.44;118.99
584;HTU21D;27024;54.068;12.116;2023-08-24T13:40:44;27.57;118.99
584;HTU21D;27024;54.068;12.116;2023-08-24T13:43:15;27.00;118.99
584;HTU21D;27024;54.068;12.116;2023-08-24T13:45:42;27.12;118.99
584;HTU21D;27024;54.068;12.116;2023-08-24T13:48:09;27.02;118.99
584;HTU21D;27024;54.068;12.116;2023-08-24T13:50:36;26.96;118.99
584;HTU21D;27024;54.068;12.116;2023-08-24T13:53:03;26.95;118.99
584;HTU21D;27024;54.068;12.116;2023-08-24T13:55:30;26.85;118.99
584;HTU21D;27024;54.068;12.116;2023-08-24T13:57:57;26.94;118.99
584;HTU21D;27024;54.068;12.116;2023-08-24T14:00:24;26.83;118.99
584;HTU21D;27024;54.068;12.116;2023-08-24T14:02:52;26.82;118.99
584;HTU21D;27024;54.068;12.116;2023-08-24T14:05:19;26.36;118.99
584;HTU21D;27024;54.068;12.116;2023-08-24T14:07:46;26.46;118.99
584;HTU21D;27024;54.068;12.116;2023-08-24T14:10:13;26.77;118.99
584;HTU21D;27024;54.068;12.116;2023-08-24T14:12:40;26.72;118.99
584;HTU21D;27024;54.068;12.116;2023-08-24T14:15:07;27.12;118.99
584;HTU21D;27024;54.068;12.116;2023-08-24T14:17:34;26.56;118.99
584;HTU21D;27024;54.068;12.116;2023-08-24T14:20:01;27.55;118.99
584;HTU21D;27024;54.068;12.116;2023-08-24T14:22:30;27.13;118.99
584;HTU21D;27024;54.068;12.116;2023-08-24T14:24:57;26.82;118.99
584;HTU21D;27024;54.068;12.116;2023-08-24T14:27:24;26.64;118.99
584;HTU21D;27024;54.068;12.116;2023-08-24T14:29:51;26.50;118.99
584;HTU21D;27024;54.068;12.116;2023-08-24T14:32:18;26.40;118.99
584;HTU21D;27024;54.068;12.116;2023-08-24T14:34:45;26.16;118.99
584;HTU21D;27024;54.068;12.116;2023-08-24T14:37:11;26.34;118.99
584;HTU21D;27024;54.068;12.116;2023-08-24T14:39:38;26.49;118.99
584;HTU21D;27024;54.068;12.116;2023-08-24T14:42:05;26.48;118.99
584;HTU21D;27024;54.068;12.116;2023-08-24T14:44:32;25.96;118.99
584;HTU21D;27024;54.068;12.116;2023-08-24T14:47:00;25.94;118.99
584;HTU21D;27024;54.068;12.116;2023-08-24T14:49:27;25.51;118.99
584;HTU21D;27024;54.068;12.116;2023-08-24T14:51:54;25.13;118.99
584;HTU21D;27024;54.068;12.116;2023-08-24T14:54:21;25.06;118.99
584;HTU21D;27024;54.068;12.116;2023-08-24T14:56:48;25.19;118.99
584;HTU21D;27024;54.068;12.116;2023-08-24T14:59:15;25.08;118.99
584;HTU21D;27024;54.068;12.116;2023-08-24T15:01:42;24.75;118.99
584;HTU21D;27024;54.068;12.116;2023-08-24T15:04:09;25.12;118.99
584;HTU21D;27024;54.068;12.116;2023-08-24T15:06:35;25.07;118.99
584;HTU21D;27024;54.068;12.116;2023-08-24T15:09:02;25.09;118.99
584;HTU21D;27024;54.068;12.116;2023-08-24T15:11:30;25.12;118.99
584;HTU21D;27024;54.068;12.116;2023-08-24T15:13:57;24.93;118.99
584;HTU21D;27024;54.068;12.116;2023-08-24T15:16:24;24.72;118.99
584;HTU21D;27024;54.068;12.116;2023-08-24T15:18:51;24.59;118.99
584;HTU21D;27024;54.068;12.116;2023-08-24T15:21:18;24.51;118.99
584;HTU21D;27024;54.068;12.116;2023-08-24T15:23:44;24.79;118.99
584;HTU21D;27024;54.068;12.116;2023-08-24T15:26:11;24.90;118.99
584;HTU21D;27024;54.068;12.116;2023-08-24T15:29:17;24.72;118.99